createdAt,value
2022-09-26T00:00:16.910Z,100384.13
2022-09-26T00:02:43.638Z,100366.44
2022-09-26T00:05:10.282Z,100380.75
2022-09-26T00:07:37.260Z,100327.13
2022-09-26T00:10:04.827Z,100309.41
2022-09-26T00:12:31.438Z,100369.81
2022-09-26T00:14:58.217Z,100354.69
2022-09-26T00:17:26.109Z,100348.47
2022-09-26T00:19:52.602Z,100330.09
2022-09-26T00:22:19.208Z,100349.22
2022-09-26T00:24:45.701Z,100342.78
2022-09-26T00:27:12.249Z,100324.03
2022-09-26T00:29:38.813Z,100337.19
2022-09-26T00:32:05.443Z,100334.44
2022-09-26T00:34:33.315Z,100334.22
2022-09-26T00:37:00.120Z,100333.03
2022-09-26T00:39:26.643Z,100336.28
2022-09-26T00:41:53.263Z,100314.91
2022-09-26T00:44:37.684Z,100317.66
2022-09-26T00:47:07.275Z,100301.19
2022-09-26T00:49:37.927Z,100315.75
2022-09-26T00:52:09.047Z,100290.09
2022-09-26T00:54:39.488Z,100306.22
2022-09-26T00:57:09.995Z,100308.09
2022-09-26T00:59:39.455Z,100299.53
2022-09-26T01:02:06.251Z,100281.13
2022-09-26T01:04:37.505Z,100259.19
2022-09-26T01:07:08.317Z,100244.19
2022-09-26T01:09:35.578Z,100295.94
2022-09-26T01:12:04.598Z,100296.56
2022-09-26T01:14:33.046Z,100289.63
2022-09-26T01:16:59.843Z,100284.16
2022-09-26T01:19:38.002Z,100259.47
2022-09-26T01:22:44.460Z,100274.00
2022-09-26T01:25:22.040Z,100264.44
2022-09-26T01:28:04.312Z,100271.63
2022-09-26T01:30:39.141Z,100266.75
2022-09-26T01:33:37.305Z,100264.69
2022-09-26T01:36:42.851Z,100258.16
2022-09-26T01:39:23.295Z,100259.94
2022-09-26T01:41:57.886Z,100223.69
2022-09-26T01:44:32.415Z,100218.78
2022-09-26T01:47:09.439Z,100251.69
2022-09-26T01:49:42.883Z,100197.09
2022-09-26T01:52:15.877Z,100203.88
2022-09-26T01:54:48.922Z,100235.97
2022-09-26T01:57:28.062Z,100241.47
2022-09-26T01:59:59.240Z,100244.81
2022-09-26T02:02:31.244Z,100239.28
2022-09-26T02:05:02.797Z,100237.03
2022-09-26T02:07:36.362Z,100232.25
2022-09-26T02:10:09.296Z,100230.47
2022-09-26T02:12:39.251Z,100227.47
2022-09-26T02:15:09.273Z,100223.06
2022-09-26T02:17:41.384Z,100218.16
2022-09-26T02:20:11.803Z,100212.06
2022-09-26T02:22:39.004Z,100210.16
2022-09-26T02:25:09.005Z,100213.63
2022-09-26T02:27:35.616Z,100203.25
2022-09-26T02:30:04.167Z,100189.16
2022-09-26T02:32:32.722Z,100182.63
2022-09-26T02:35:02.119Z,100172.34
2022-09-26T02:37:31.470Z,100175.91
2022-09-26T02:39:58.099Z,100165.75
2022-09-26T02:42:31.774Z,100110.13
2022-09-26T02:45:12.003Z,100137.75
2022-09-26T02:47:53.586Z,100150.25
2022-09-26T02:50:34.830Z,100142.63
2022-09-26T02:53:14.208Z,100161.19
2022-09-26T02:56:00.284Z,100161.88
2022-09-26T02:58:33.754Z,100151.50
2022-09-26T03:01:09.070Z,100117.78
2022-09-26T03:03:41.379Z,100137.28
2022-09-26T03:06:15.225Z,100137.50
2022-09-26T03:08:47.090Z,100143.59
2022-09-26T03:11:18.720Z,100124.16
2022-09-26T03:13:47.388Z,100103.91
2022-09-26T03:16:14.653Z,100127.56
2022-09-26T03:18:48.673Z,100123.97
2022-09-26T03:21:17.307Z,100119.28
2022-09-26T03:23:44.006Z,100082.72
2022-09-26T03:26:15.874Z,100106.63
2022-09-26T03:28:52.024Z,100098.09
2022-09-26T03:31:18.813Z,100072.53
2022-09-26T03:34:05.646Z,100043.97
2022-09-26T03:36:34.550Z,100078.56
2022-09-26T03:39:03.528Z,100086.81
2022-09-26T03:41:56.722Z,100084.19
2022-09-26T03:44:26.035Z,100057.69
2022-09-26T03:47:13.283Z,100057.22
2022-09-26T03:49:42.058Z,100068.03
2022-09-26T03:54:51.428Z,100054.66
2022-09-26T03:57:19.156Z,100052.69
2022-09-26T03:59:50.823Z,100050.91
2022-09-26T04:02:18.673Z,100016.44
2022-09-26T04:04:49.872Z,100019.22
2022-09-26T04:07:16.661Z,100004.34
2022-09-26T04:09:43.365Z,99971.22
2022-09-26T04:12:12.414Z,100026.00
2022-09-26T04:14:42.508Z,100025.31
2022-09-26T04:17:09.467Z,100018.63
2022-09-26T04:19:39.556Z,100020.06
2022-09-26T04:22:07.058Z,100020.28
2022-09-26T04:24:34.815Z,99960.81
2022-09-26T04:27:01.604Z,99991.88
2022-09-26T04:29:30.704Z,99998.84
2022-09-26T04:32:05.985Z,99999.38
2022-09-26T04:34:46.987Z,99958.19
2022-09-26T04:37:13.768Z,99985.66
2022-09-26T04:39:41.544Z,99869.31
2022-09-26T04:42:08.126Z,99967.75
2022-09-26T04:44:36.720Z,99971.41
2022-09-26T04:47:03.355Z,99959.88
2022-09-26T04:49:49.857Z,99963.19
2022-09-26T04:52:18.051Z,99952.50
2022-09-26T04:54:44.627Z,99957.47
2022-09-26T04:57:13.855Z,99959.56
2022-09-26T04:59:45.403Z,99962.06
2022-09-26T05:02:12.651Z,99963.84
2022-09-26T05:04:41.173Z,99956.94
2022-09-26T05:07:07.695Z,99896.31
2022-09-26T05:09:36.239Z,99951.25
2022-09-26T05:12:23.262Z,99948.41
2022-09-26T05:14:52.410Z,99944.97
2022-09-26T05:17:19.053Z,99949.00
2022-09-26T05:19:46.417Z,99944.19
2022-09-26T05:22:28.825Z,99940.28
2022-09-26T05:24:55.419Z,99939.69
2022-09-26T05:27:22.520Z,99941.41
2022-09-26T05:29:49.653Z,99932.34
2022-09-26T05:32:18.685Z,99936.88
2022-09-26T05:34:45.744Z,99920.50
2022-09-26T05:37:15.253Z,99934.78
2022-09-26T05:39:42.769Z,99934.06
2022-09-26T05:42:11.900Z,99872.81
2022-09-26T05:44:39.117Z,99856.13
2022-09-26T05:47:05.733Z,99916.00
2022-09-26T05:49:33.803Z,99894.41
2022-09-26T05:52:00.861Z,99879.41
2022-09-26T05:54:28.513Z,99909.09
2022-09-26T05:56:56.173Z,99901.91
2022-09-26T05:59:41.079Z,99883.50
2022-09-26T06:02:26.231Z,99911.19
2022-09-26T06:05:12.734Z,99884.88
2022-09-26T06:08:08.958Z,99865.63
2022-09-26T06:10:42.997Z,99898.53
2022-09-26T06:13:09.990Z,99897.31
2022-09-26T06:15:47.252Z,99892.34
2022-09-26T06:18:14.125Z,99885.88
2022-09-26T06:20:42.064Z,99889.75
2022-09-26T06:23:08.665Z,99883.13
2022-09-26T06:25:37.669Z,99888.69
2022-09-26T06:28:04.308Z,99890.78
2022-09-26T06:30:31.056Z,99884.41
2022-09-26T06:33:09.076Z,99889.97
2022-09-26T06:36:02.037Z,99871.44
2022-09-26T06:38:36.902Z,99845.84
2022-09-26T06:41:05.842Z,99849.47
2022-09-26T06:43:32.629Z,99840.88
2022-09-26T06:46:17.840Z,99846.41
2022-09-26T06:48:52.461Z,99828.69
2022-09-26T06:51:23.364Z,99845.81
2022-09-26T06:53:50.003Z,99839.16
2022-09-26T06:56:20.489Z,99840.78
2022-09-26T06:58:47.174Z,99831.22
2022-09-26T07:01:15.426Z,99834.38
2022-09-26T07:04:01.220Z,99823.94
2022-09-26T07:06:35.178Z,99820.44
2022-09-26T07:09:05.491Z,99815.78
2022-09-26T07:12:14.086Z,99787.78
2022-09-26T07:14:40.933Z,99792.94
2022-09-26T07:17:18.016Z,99795.38
2022-09-26T07:20:06.216Z,99795.78
2022-09-26T07:22:52.787Z,99800.69
2022-09-26T07:25:19.531Z,99789.91
2022-09-26T07:27:49.423Z,99799.13
2022-09-26T07:30:16.217Z,99756.16
2022-09-26T07:32:57.819Z,99773.06
2022-09-26T07:35:44.304Z,99780.31
2022-09-26T07:38:12.295Z,99779.94
2022-09-26T07:40:39.650Z,99771.78
2022-09-26T07:43:19.706Z,99776.19
2022-09-26T07:45:50.725Z,99772.41
2022-09-26T07:48:17.246Z,99769.47
2022-09-26T07:51:09.027Z,99764.91
2022-09-26T07:53:44.700Z,99764.59
2022-09-26T07:56:34.283Z,99769.72
2022-09-26T07:59:21.316Z,99713.00
2022-09-26T08:02:20.217Z,99766.75
2022-09-26T08:04:47.250Z,99758.44
2022-09-26T08:07:14.130Z,99753.16
2022-09-26T08:09:54.025Z,99752.81
2022-09-26T08:12:40.745Z,99750.50
2022-09-26T08:15:20.065Z,99751.97
2022-09-26T08:17:46.743Z,99753.88
2022-09-26T08:20:13.234Z,99743.09
2022-09-26T08:22:39.834Z,99742.81
2022-09-26T08:25:09.389Z,99719.63
2022-09-26T08:27:54.536Z,99718.66
2022-09-26T08:30:21.143Z,99738.13
2022-09-26T08:32:52.990Z,99739.59
2022-09-26T08:35:19.734Z,99735.59
2022-09-26T08:37:46.435Z,99728.19
2022-09-26T08:41:00.383Z,99733.94
2022-09-26T08:43:57.807Z,99720.22
2022-09-26T08:47:04.823Z,99726.00
2022-09-26T08:50:03.486Z,99718.09
2022-09-26T08:52:37.495Z,99738.47
2022-09-26T08:55:12.563Z,99740.78
2022-09-26T08:57:44.375Z,99735.59
2022-09-26T09:00:18.662Z,99709.03
2022-09-26T09:02:58.510Z,99720.97
2022-09-26T09:05:29.177Z,99689.25
2022-09-26T09:07:58.635Z,99725.25
2022-09-26T09:10:37.927Z,99727.50
2022-09-26T09:13:31.384Z,99718.44
2022-09-26T09:16:47.150Z,99741.13
2022-09-26T09:19:45.243Z,99725.56
2022-09-26T09:22:49.274Z,99722.75
2022-09-26T09:25:23.643Z,99724.41
2022-09-26T09:28:08.632Z,99711.41
2022-09-26T09:30:42.970Z,99731.25
2022-09-26T09:33:32.069Z,99725.16
2022-09-26T09:36:40.476Z,99735.38
2022-09-26T09:39:27.643Z,99726.41
2022-09-26T09:42:05.309Z,99733.03
2022-09-26T09:44:46.378Z,99712.22
2022-09-26T09:47:17.273Z,99715.41
2022-09-26T09:49:46.501Z,99733.72
2022-09-26T09:52:37.024Z,99721.63
2022-09-26T09:55:16.684Z,99702.53
2022-09-26T09:57:56.467Z,99707.47
2022-09-26T10:00:25.029Z,99704.81
2022-09-26T10:03:17.590Z,99704.19
2022-09-26T10:05:46.875Z,99704.19
2022-09-26T10:08:29.113Z,99700.03
2022-09-26T10:11:27.078Z,99686.84
2022-09-26T10:14:01.319Z,99697.09
2022-09-26T10:17:13.398Z,99689.47
2022-09-26T10:20:06.183Z,99677.25
2022-09-26T10:22:43.429Z,99654.09
2022-09-26T10:25:18.514Z,99679.69
2022-09-26T10:27:50.668Z,99670.09
2022-09-26T10:30:24.270Z,99672.25
2022-09-26T10:32:56.403Z,99673.56
2022-09-26T10:35:45.432Z,99668.28
2022-09-26T10:38:22.716Z,99633.56
2022-09-26T10:41:22.688Z,99659.34
2022-09-26T10:43:52.781Z,99639.06
2022-09-26T10:46:42.628Z,99652.06
2022-09-26T10:49:34.039Z,99658.34
2022-09-26T10:52:39.840Z,99643.63
2022-09-26T10:55:11.529Z,99647.56
2022-09-26T10:57:43.651Z,99652.75
2022-09-26T11:00:18.650Z,99622.31
2022-09-26T11:02:46.758Z,99638.16
2022-09-26T11:05:16.683Z,99635.81
2022-09-26T11:07:46.758Z,99625.84
2022-09-26T11:10:37.422Z,99605.06
2022-09-26T11:13:44.394Z,99593.16
2022-09-26T11:16:13.278Z,99621.38
2022-09-26T11:18:49.257Z,99606.97
2022-09-26T11:21:29.200Z,99611.28
2022-09-26T11:24:05.916Z,99597.84
2022-09-26T11:26:38.662Z,99597.38
2022-09-26T11:29:14.095Z,99586.16
2022-09-26T11:31:55.068Z,99558.59
2022-09-26T11:34:29.302Z,99578.38
2022-09-26T11:37:27.788Z,99569.38
2022-09-26T11:40:13.052Z,99563.22
2022-09-26T11:42:56.115Z,99554.41
2022-09-26T11:45:37.715Z,99549.22
2022-09-26T11:48:54.175Z,99545.53
2022-09-26T11:52:09.113Z,99533.59
2022-09-26T11:54:59.332Z,99527.94
2022-09-26T11:57:37.371Z,99518.78
2022-09-26T12:00:10.497Z,99525.13
2022-09-26T12:02:52.956Z,99496.13
2022-09-26T12:05:36.887Z,99508.00
2022-09-26T12:08:17.600Z,99499.69
2022-09-26T12:10:54.506Z,99493.75
2022-09-26T12:13:30.292Z,99483.34
2022-09-26T12:16:06.882Z,99479.13
2022-09-26T12:18:38.291Z,99468.13
2022-09-26T12:21:17.739Z,99468.53
2022-09-26T12:23:51.781Z,99459.91
2022-09-26T12:26:27.488Z,99437.66
2022-09-26T12:29:05.346Z,99443.06
2022-09-26T12:31:45.973Z,99441.88
2022-09-26T12:34:29.831Z,99439.28
2022-09-26T12:37:07.056Z,99441.38
2022-09-26T12:39:57.260Z,99430.59
2022-09-26T12:42:45.110Z,99414.09
2022-09-26T12:45:41.648Z,99408.44
2022-09-26T12:48:24.851Z,99378.94
2022-09-26T12:51:07.060Z,99368.91
2022-09-26T12:53:53.808Z,99366.25
2022-09-26T12:56:29.281Z,99373.56
2022-09-26T12:59:12.048Z,99350.91
2022-09-26T13:02:04.411Z,99299.72
2022-09-26T13:05:03.719Z,99379.00
2022-09-26T13:07:48.868Z,99380.41
2022-09-26T13:10:32.643Z,99365.25
2022-09-26T13:13:27.934Z,99381.59
2022-09-26T13:16:07.601Z,99398.66
2022-09-26T13:18:38.777Z,99392.22
2022-09-26T13:21:09.105Z,99402.63
2022-09-26T13:23:41.694Z,99397.25
2022-09-26T13:26:14.078Z,99379.09
2022-09-26T13:29:06.344Z,99379.66
2022-09-26T13:31:40.894Z,99387.84
2022-09-26T13:34:15.209Z,99386.97
2022-09-26T13:36:43.300Z,99397.06
2022-09-26T13:39:17.336Z,99341.91
2022-09-26T13:41:54.183Z,99394.31
2022-09-26T13:44:29.896Z,99392.13
2022-09-26T13:47:21.450Z,99375.38
2022-09-26T13:49:59.186Z,99384.09
2022-09-26T13:52:43.403Z,99385.75
2022-09-26T13:55:14.964Z,99364.44
2022-09-26T13:57:47.735Z,99376.78
2022-09-26T14:00:42.582Z,99380.78
2022-09-26T14:03:39.223Z,99375.03
2022-09-26T14:06:28.386Z,99377.44
2022-09-26T14:09:13.624Z,99330.91
2022-09-26T14:11:50.689Z,99341.22
2022-09-26T14:14:42.562Z,99365.91
2022-09-26T14:17:47.882Z,99358.97
2022-09-26T14:20:24.267Z,99239.47
2022-09-26T14:22:54.256Z,99351.16
2022-09-26T14:25:55.609Z,99345.88
2022-09-26T14:28:32.113Z,99345.69
2022-09-26T14:31:21.152Z,99353.84
2022-09-26T14:33:49.462Z,99350.22
2022-09-26T14:36:34.058Z,99312.19
2022-09-26T14:39:02.429Z,99338.81
2022-09-26T14:41:32.592Z,99341.16
2022-09-26T14:44:02.412Z,99325.34
2022-09-26T14:46:31.724Z,99323.53
2022-09-26T14:49:01.136Z,99303.22
2022-09-26T14:51:32.522Z,99303.25
2022-09-26T14:54:02.616Z,99305.34
2022-09-26T14:56:35.775Z,99297.94
2022-09-26T14:59:29.382Z,99294.84
2022-09-26T15:02:19.590Z,99285.78
2022-09-26T15:04:50.329Z,99287.22
2022-09-26T15:07:21.654Z,99272.44
2022-09-26T15:09:54.689Z,99284.59
2022-09-26T15:12:26.152Z,99275.19
2022-09-26T15:15:04.751Z,99236.09
2022-09-26T15:17:36.882Z,99265.31
2022-09-26T15:20:06.718Z,99253.19
2022-09-26T15:22:35.394Z,99229.69
2022-09-26T15:25:08.786Z,99248.03
2022-09-26T15:27:35.538Z,99247.34
2022-09-26T15:30:05.591Z,99257.63
2022-09-26T15:32:33.852Z,99242.50
2022-09-26T15:35:03.160Z,99234.28
2022-09-26T15:37:32.663Z,99228.41
2022-09-26T15:40:11.605Z,99230.91
2022-09-26T15:42:38.300Z,99222.19
2022-09-26T15:45:17.407Z,99226.06
2022-09-26T15:47:44.199Z,99213.97
2022-09-26T15:50:12.844Z,99196.28
2022-09-26T15:52:43.218Z,99191.31
2022-09-26T15:55:17.287Z,99190.59
2022-09-26T15:57:44.595Z,99193.00
2022-09-26T16:00:14.002Z,99195.56
2022-09-26T16:02:41.301Z,99175.44
2022-09-26T16:05:12.852Z,99172.09
2022-09-26T16:07:46.457Z,99182.66
2022-09-26T16:10:28.029Z,99178.34
2022-09-26T16:12:55.378Z,99164.69
2022-09-26T16:15:26.350Z,99161.56
2022-09-26T16:17:54.870Z,99139.38
2022-09-26T16:20:27.141Z,99157.91
2022-09-26T16:22:54.298Z,99158.81
2022-09-26T16:25:29.314Z,99155.34
2022-09-26T16:28:15.370Z,99143.56
2022-09-26T16:30:44.361Z,99163.81
2022-09-26T16:33:28.091Z,99161.97
2022-09-26T16:35:55.073Z,99164.19
2022-09-26T16:38:26.114Z,99146.81
2022-09-26T16:40:56.649Z,99167.53
2022-09-26T16:43:26.289Z,99141.53
2022-09-26T16:45:59.157Z,99148.75
2022-09-26T16:48:38.532Z,99156.13
2022-09-26T16:51:12.976Z,99147.19
2022-09-26T16:53:42.546Z,99134.31
2022-09-26T16:56:12.932Z,99141.44
2022-09-26T16:58:48.969Z,99134.16
2022-09-26T17:01:16.374Z,99127.84
2022-09-26T17:03:43.138Z,99115.69
2022-09-26T17:06:10.079Z,99120.00
2022-09-26T17:08:36.630Z,99119.72
2022-09-26T17:11:04.415Z,99103.63
2022-09-26T17:13:35.215Z,98989.41
2022-09-26T17:16:02.343Z,99088.44
2022-09-26T17:18:30.109Z,99117.34
2022-09-26T17:20:57.068Z,99116.25
2022-09-26T17:23:40.938Z,99059.31
2022-09-26T17:26:10.987Z,99101.09
2022-09-26T17:28:41.433Z,99103.19
2022-09-26T17:31:12.968Z,99053.41
2022-09-26T17:33:40.887Z,99094.31
2022-09-26T17:36:18.108Z,99099.63
2022-09-26T17:38:44.711Z,99087.34
2022-09-26T17:41:11.258Z,99082.81
2022-09-26T17:43:39.380Z,99091.50
2022-09-26T17:46:06.386Z,99070.53
2022-09-26T17:48:33.180Z,99079.50
2022-09-26T17:51:01.883Z,99079.00
2022-09-26T17:53:36.377Z,99046.59
2022-09-26T17:56:04.716Z,99069.59
2022-09-26T17:58:31.606Z,99066.78
2022-09-26T18:00:59.760Z,99039.91
2022-09-26T18:03:28.686Z,99046.47
2022-09-26T18:05:55.956Z,99058.31
2022-09-26T18:08:25.781Z,99055.06
2022-09-26T18:10:54.266Z,99063.28
2022-09-26T18:13:23.856Z,99062.28
2022-09-26T18:15:50.957Z,99058.59
2022-09-26T18:18:20.737Z,99006.16
2022-09-26T18:20:47.532Z,99039.19
2022-09-26T18:23:17.828Z,99039.00
2022-09-26T18:25:45.157Z,99006.44
2022-09-26T18:28:14.807Z,99008.81
2022-09-26T18:30:44.264Z,99009.44
2022-09-26T18:33:13.305Z,99022.03
2022-09-26T18:35:41.436Z,99022.03
2022-09-26T18:38:08.207Z,99001.22
2022-09-26T18:40:39.975Z,99021.59
2022-09-26T18:43:06.913Z,99014.38
2022-09-26T18:45:34.699Z,99017.47
2022-09-26T18:48:04.282Z,99001.97
2022-09-26T18:50:33.653Z,99007.72
2022-09-26T18:53:02.059Z,99006.06
2022-09-26T18:55:28.740Z,98997.16
2022-09-26T18:57:55.263Z,98984.81
2022-09-26T19:00:21.809Z,98999.97
2022-09-26T19:02:48.871Z,98990.41
2022-09-26T19:05:16.249Z,98982.56
2022-09-26T19:07:43.262Z,98980.19
2022-09-26T19:10:15.648Z,98984.81
2022-09-26T19:12:42.270Z,98992.41
2022-09-26T19:15:13.097Z,98986.47
2022-09-26T19:17:39.747Z,98985.03
2022-09-26T19:20:06.548Z,98988.59
2022-09-26T19:22:33.679Z,98985.75
2022-09-26T19:25:01.525Z,98948.66
2022-09-26T19:27:33.988Z,98980.47
2022-09-26T19:30:02.602Z,98976.19
2022-09-26T19:32:32.607Z,98973.75
2022-09-26T19:35:01.634Z,98973.53
2022-09-26T19:37:28.406Z,98943.66
2022-09-26T19:39:55.071Z,98970.91
2022-09-26T19:42:21.885Z,98972.75
2022-09-26T19:44:50.245Z,98952.66
2022-09-26T19:47:18.170Z,98969.28
2022-09-26T19:49:47.185Z,98966.44
2022-09-26T19:52:15.652Z,98956.78
2022-09-26T19:54:42.607Z,98968.44
2022-09-26T19:57:14.642Z,98930.78
2022-09-26T19:59:42.635Z,98952.41
2022-09-26T20:02:14.757Z,98933.25
2022-09-26T20:04:41.469Z,98968.41
2022-09-26T20:07:11.484Z,98960.16
2022-09-26T20:09:38.139Z,98937.50
2022-09-26T20:12:04.968Z,98959.50
2022-09-26T20:14:31.708Z,98934.56
2022-09-26T20:17:01.444Z,98943.25
2022-09-26T20:19:33.438Z,98956.19
2022-09-26T20:22:01.719Z,98954.66
2022-09-26T20:24:30.760Z,98946.13
2022-09-26T20:26:59.376Z,98960.22
2022-09-26T20:29:25.985Z,98943.25
2022-09-26T20:31:53.148Z,98933.69
2022-09-26T20:34:19.691Z,98953.66
2022-09-26T20:36:49.452Z,98946.91
2022-09-26T20:39:21.215Z,98947.44
2022-09-26T20:41:47.681Z,98943.00
2022-09-26T20:44:18.462Z,98940.63
2022-09-26T20:46:48.938Z,98932.69
2022-09-26T20:49:19.611Z,98942.66
2022-09-26T20:51:48.385Z,98896.03
2022-09-26T20:54:24.017Z,98936.25
2022-09-26T20:56:50.670Z,98938.34
2022-09-26T20:59:17.156Z,98940.44
2022-09-26T21:01:44.069Z,98941.28
2022-09-26T21:04:14.084Z,98932.09
2022-09-26T21:06:41.682Z,98935.66
2022-09-26T21:09:14.886Z,98934.00
2022-09-26T21:11:41.701Z,98940.56
2022-09-26T21:14:08.655Z,98940.94
2022-09-26T21:16:38.725Z,98919.69
2022-09-26T21:19:06.586Z,98940.44
2022-09-26T21:21:33.122Z,98936.25
2022-09-26T21:24:22.738Z,98927.41
2022-09-26T21:26:51.518Z,98925.44
2022-09-26T21:29:18.240Z,98918.16
2022-09-26T21:31:47.543Z,98919.78
2022-09-26T21:34:20.258Z,98911.13
2022-09-26T21:36:47.220Z,98916.31
2022-09-26T21:39:18.024Z,98900.66
2022-09-26T21:41:46.099Z,98908.84
2022-09-26T21:44:20.905Z,98887.16
2022-09-26T21:46:47.633Z,98919.25
2022-09-26T21:49:14.144Z,98909.66
2022-09-26T21:51:41.585Z,98908.50
2022-09-26T21:54:13.613Z,98887.72
2022-09-26T21:56:48.070Z,98908.13
2022-09-26T21:59:14.986Z,98867.38
2022-09-26T22:01:41.615Z,98901.19
2022-09-26T22:04:08.256Z,98901.19
2022-09-26T22:06:34.834Z,98882.81
2022-09-26T22:09:01.587Z,98855.72
2022-09-26T22:11:28.162Z,98893.25
2022-09-26T22:13:56.209Z,98865.03
2022-09-26T22:16:22.788Z,98882.69
2022-09-26T22:18:49.551Z,98885.16
2022-09-26T22:21:16.240Z,98881.69
2022-09-26T22:23:42.956Z,98848.72
2022-09-26T22:26:09.696Z,98870.94
2022-09-26T22:28:36.368Z,98858.00
2022-09-26T22:31:05.151Z,98866.84
2022-09-26T22:33:32.221Z,98866.00
2022-09-26T22:35:58.815Z,98867.84
2022-09-26T22:38:26.003Z,98861.09
2022-09-26T22:40:55.816Z,98806.97
2022-09-26T22:43:22.693Z,98856.66
2022-09-26T22:45:49.267Z,98854.81
2022-09-26T22:48:17.608Z,98807.47
2022-09-26T22:50:44.200Z,98859.47
2022-09-26T22:53:11.403Z,98828.56
2022-09-26T22:55:38.238Z,98854.81
2022-09-26T22:58:04.854Z,98859.63
2022-09-26T23:00:31.423Z,98826.84
2022-09-26T23:02:58.181Z,98853.53
2022-09-26T23:05:26.198Z,98857.09
2022-09-26T23:07:53.023Z,98825.19
2022-09-26T23:10:19.563Z,98859.19
2022-09-26T23:12:46.215Z,98867.69
2022-09-26T23:15:12.818Z,98862.81
2022-09-26T23:17:39.427Z,98863.38
2022-09-26T23:20:07.056Z,98854.06
2022-09-26T23:22:35.072Z,98831.66
2022-09-26T23:25:01.589Z,98859.91
2022-09-26T23:27:28.175Z,98846.31
2022-09-26T23:29:54.688Z,98861.28
2022-09-26T23:32:21.355Z,98849.44
2022-09-26T23:34:47.887Z,98853.78
2022-09-26T23:37:14.493Z,98843.88
2022-09-26T23:39:42.448Z,98847.53
2022-09-26T23:42:09.051Z,98844.53
2022-09-26T23:44:35.615Z,98827.94
2022-09-26T23:47:02.223Z,98829.94
2022-09-26T23:49:28.776Z,98819.91
2022-09-26T23:51:55.378Z,98835.31
2022-09-26T23:54:22.050Z,98843.34
2022-09-26T23:56:50.062Z,98819.53
2022-09-26T23:59:16.614Z,98837.03
